Time;durP1;ratioP1;P1;durP2;ratioP2;P2;SDS_P1;SDS_P2;PMS_P1;PMS_P2;Temp;Humidity;BMP_temperature;BMP_pressure;BME280_temperature;BME280_humidity;BME280_pressure;Samples;Min_cycle;Max_cycle;Signal;HPM_P1;HPM_P2
2022/07/28 00:00:11;;;;;;;2.60;1.23;;;15.80;53.30;;;;;;5053984;28;20064;-62
2022/07/28 00:02:37;;;;;;;2.72;0.90;;;15.80;53.30;;;;;;5052843;28;20043;-69
2022/07/28 00:05:03;;;;;;;2.58;0.90;;;15.80;53.30;;;;;;5052792;28;20121;-64
2022/07/28 00:07:29;;;;;;;2.10;0.80;;;15.70;53.30;;;;;;5053136;28;20025;-68
2022/07/28 00:09:55;;;;;;;4.35;1.10;;;15.70;53.30;;;;;;5052713;28;20490;-64
2022/07/28 00:12:20;;;;;;;1.25;0.82;;;15.70;53.30;;;;;;5036066;28;20041;-68
2022/07/28 00:14:46;;;;;;;2.03;0.82;;;15.70;53.30;;;;;;5052790;28;20102;-64
2022/07/28 00:17:12;;;;;;;2.45;1.00;;;15.70;53.40;;;;;;5052598;28;20445;-68
2022/07/28 00:19:38;;;;;;;2.20;0.80;;;15.70;53.30;;;;;;5053604;28;20040;-68
2022/07/28 00:22:05;;;;;;;1.73;0.82;;;15.60;53.30;;;;;;5052226;28;20045;-64
2022/07/28 00:24:30;;;;;;;1.17;0.68;;;15.60;53.40;;;;;;5052755;28;20090;-64
2022/07/28 00:26:56;;;;;;;2.58;0.88;;;15.60;53.40;;;;;;5052365;28;20041;-64
2022/07/28 00:29:22;;;;;;;1.45;0.70;;;15.60;53.50;;;;;;5069193;28;20051;-68
2022/07/28 00:31:48;;;;;;;1.85;0.98;;;15.50;53.50;;;;;;5052360;28;20075;-63
2022/07/28 00:34:13;;;;;;;1.45;0.77;;;15.50;53.60;;;;;;5053430;28;20041;-67
2022/07/28 00:36:39;;;;;;;2.35;1.00;;;15.50;54.10;;;;;;5052273;28;20045;-67
2022/07/28 00:39:05;;;;;;;1.80;1.00;;;15.50;53.80;;;;;;5052153;28;20118;-63
2022/07/28 00:41:30;;;;;;;2.22;0.95;;;15.50;53.90;;;;;;5052166;28;20037;-64
2022/07/28 00:43:56;;;;;;;1.90;0.90;;;15.40;53.90;;;;;;5052395;28;20500;-68
2022/07/28 00:46:22;;;;;;;2.60;0.98;;;15.40;53.90;;;;;;5052274;28;20051;-68
2022/07/28 00:48:51;;;;;;;3.25;0.90;;;15.40;53.90;;;;;;5053278;28;20053;-69
2022/07/28 00:51:19;;;;;;;1.33;0.90;;;15.40;54.00;;;;;;5053173;28;20053;-68
2022/07/28 00:53:45;;;;;;;2.10;0.90;;;15.30;54.00;;;;;;5052187;28;20440;-68
2022/07/28 00:56:11;;;;;;;3.30;0.80;;;15.30;54.00;;;;;;5052965;28;20496;-64
2022/07/28 00:58:38;;;;;;;1.55;0.80;;;15.30;54.00;;;;;;5051906;28;20079;-68
2022/07/28 01:01:06;;;;;;;2.42;0.80;;;15.30;54.00;;;;;;5052074;28;20110;-64
2022/07/28 01:03:33;;;;;;;2.75;0.90;;;15.30;54.10;;;;;;5053411;28;20041;-64
2022/07/28 01:06:25;;;;;;;1.83;0.70;;;15.20;54.00;;;;;;5051752;28;20123;-68
2022/07/28 01:09:20;;;;;;;2.08;0.80;;;15.30;54.10;;;;;;5041205;28;20060;-68
2022/07/28 01:12:10;;;;;;;2.45;0.90;;;15.30;54.10;;;;;;5051865;28;20132;-68
2022/07/28 01:14:58;;;;;;;1.52;0.82;;;15.20;54.20;;;;;;5052006;28;20393;-68
2022/07/28 01:17:34;;;;;;;2.83;0.93;;;15.20;54.20;;;;;;5047851;28;20053;-68
2022/07/28 01:20:08;;;;;;;2.10;0.90;;;15.10;54.10;;;;;;5051550;28;20130;-68
2022/07/28 01:22:44;;;;;;;1.92;0.95;;;15.10;54.20;;;;;;5051344;28;20087;-68
2022/07/28 01:25:38;;;;;;;1.80;1.00;;;15.10;54.20;;;;;;5051805;28;20563;-68
2022/07/28 01:28:04;;;;;;;1.20;0.70;;;15.10;54.30;;;;;;5052951;28;20045;-63
2022/07/28 01:30:42;;;;;;;1.55;0.90;;;15.10;54.30;;;;;;5068153;28;20060;-63
2022/07/28 01:33:17;;;;;;;2.05;0.80;;;15.10;54.30;;;;;;5051670;28;20044;-68
2022/07/28 01:35:50;;;;;;;1.42;0.90;;;15.10;54.30;;;;;;5051307;28;20079;-64
2022/07/28 01:38:17;;;;;;;2.00;1.15;;;15.10;54.30;;;;;;5068239;28;20394;-64
2022/07/28 01:40:45;;;;;;;1.10;0.80;;;15.10;54.40;;;;;;5052737;28;20108;-64
2022/07/28 01:43:16;;;;;;;1.38;0.88;;;15.00;54.30;;;;;;5051302;28;20056;-64
2022/07/28 01:45:44;;;;;;;3.35;0.88;;;15.00;54.30;;;;;;5051459;28;20048;-67
2022/07/28 01:48:12;;;;;;;1.75;0.90;;;15.00;54.30;;;;;;5034973;28;20045;-67
2022/07/28 01:50:39;;;;;;;1.27;0.60;;;15.00;54.30;;;;;;5051247;28;20049;-69
2022/07/28 01:53:09;;;;;;;2.13;0.90;;;15.00;54.30;;;;;;5051119;28;20051;-63
2022/07/28 01:55:37;;;;;;;1.05;0.57;;;15.00;54.30;;;;;;5051163;28;20076;-63
2022/07/28 01:58:03;;;;;;;1.65;1.00;;;15.00;54.30;;;;;;5051158;28;20489;-69
2022/07/28 02:00:31;;;;;;;1.83;0.88;;;15.00;54.30;;;;;;5051200;28;20509;-69
2022/07/28 02:03:02;;;;;;;2.17;1.17;;;14.90;54.30;;;;;;5051001;28;20040;-68
2022/07/28 02:05:29;;;;;;;2.13;1.00;;;15.00;54.30;;;;;;5052568;28;20099;-68
2022/07/28 02:07:58;;;;;;;3.05;0.98;;;14.90;54.30;;;;;;5053547;28;20052;-69
2022/07/28 02:10:25;;;;;;;1.60;1.10;;;14.90;54.30;;;;;;5055075;28;20044;-67
2022/07/28 02:12:54;;;;;;;2.70;0.90;;;14.90;54.40;;;;;;5055120;28;20127;-63
2022/07/28 02:15:21;;;;;;;3.30;1.00;;;14.80;54.40;;;;;;5056128;28;20115;-63
2022/07/28 02:17:48;;;;;;;0.88;0.70;;;14.80;54.50;;;;;;5055074;28;20076;-67
2022/07/28 02:20:15;;;;;;;1.20;0.88;;;14.80;54.60;;;;;;5055974;28;20128;-67
2022/07/28 02:22:42;;;;;;;2.47;1.02;;;14.80;54.70;;;;;;5038093;28;20099;-66
2022/07/28 02:25:08;;;;;;;1.95;1.30;;;14.70;54.70;;;;;;5054975;28;20045;-63
2022/07/28 02:27:41;;;;;;;1.95;0.90;;;14.70;54.70;;;;;;5055900;28;20041;-67
2022/07/28 02:30:29;;;;;;;2.03;1.02;;;14.70;54.80;;;;;;5054728;28;20045;-67
2022/07/28 02:32:59;;;;;;;1.50;0.80;;;14.70;54.90;;;;;;5055936;28;20116;-63
2022/07/28 02:35:48;;;;;;;2.42;0.85;;;14.60;54.90;;;;;;5054531;28;20098;-68
2022/07/28 02:38:20;;;;;;;3.15;1.70;;;14.60;55.00;;;;;;5055534;28;20049;-68
2022/07/28 02:40:49;;;;;;;2.10;0.90;;;14.60;55.10;;;;;;5054482;28;20090;-68
2022/07/28 02:43:19;;;;;;;2.40;1.05;;;14.60;55.10;;;;;;5054477;28;20041;-68
2022/07/28 02:45:50;;;;;;;1.63;0.80;;;14.60;55.20;;;;;;5055782;28;20045;-68
2022/07/28 02:48:20;;;;;;;3.55;1.13;;;14.60;55.20;;;;;;5055639;28;20116;-68
2022/07/28 02:50:47;;;;;;;1.63;0.90;;;14.50;55.20;;;;;;5054505;28;20094;-65
2022/07/28 02:53:15;;;;;;;3.05;1.20;;;14.50;55.20;;;;;;5054187;28;20040;-64
2022/07/28 02:55:42;;;;;;;1.40;1.00;;;14.50;55.20;;;;;;5054223;28;20511;-68
2022/07/28 02:58:09;;;;;;;1.33;0.90;;;14.50;55.10;;;;;;5054167;28;20512;-64
2022/07/28 03:00:37;;;;;;;1.58;0.70;;;14.50;55.10;;;;;;5055313;28;20048;-64
2022/07/28 03:03:04;;;;;;;2.00;1.00;;;14.40;55.10;;;;;;5037414;28;20066;-64
2022/07/28 03:05:30;;;;;;;2.17;0.75;;;14.40;55.10;;;;;;5070649;28;20045;-68
2022/07/28 03:07:58;;;;;;;1.77;0.88;;;14.40;55.10;;;;;;5055131;28;20121;-70
2022/07/28 03:10:26;;;;;;;2.03;0.77;;;14.40;55.20;;;;;;5054138;28;20442;-64
2022/07/28 03:12:52;;;;;;;1.67;0.70;;;14.30;55.20;;;;;;5053824;28;20045;-64
2022/07/28 03:15:18;;;;;;;1.90;0.88;;;14.30;55.30;;;;;;5053957;28;20040;-70
2022/07/28 03:17:44;;;;;;;1.77;0.90;;;14.30;55.70;;;;;;5055038;28;20098;-68
2022/07/28 03:20:11;;;;;;;1.35;0.82;;;14.30;55.30;;;;;;5053614;28;20045;-69
2022/07/28 03:22:37;;;;;;;1.80;0.73;;;14.30;55.40;;;;;;5053920;28;20135;-68
2022/07/28 03:25:14;;;;;;;2.88;0.70;;;14.20;55.30;;;;;;5053745;28;20041;-62
2022/07/28 03:27:44;;;;;;;1.73;1.00;;;14.20;55.30;;;;;;5053508;28;20047;-63
2022/07/28 03:30:21;;;;;;;1.50;0.90;;;14.20;55.20;;;;;;5053668;28;20040;-67
2022/07/28 03:32:51;;;;;;;1.55;1.00;;;14.20;55.20;;;;;;5053486;28;20049;-63
2022/07/28 03:35:17;;;;;;;1.75;1.00;;;14.20;55.20;;;;;;5053548;28;20049;-67
2022/07/28 03:37:57;;;;;;;1.27;0.80;;;14.10;55.20;;;;;;5053502;28;20049;-67
2022/07/28 03:40:25;;;;;;;1.58;1.08;;;14.10;55.30;;;;;;5053477;28;20441;-63
2022/07/28 03:42:52;;;;;;;1.55;0.85;;;14.10;55.40;;;;;;5053514;28;20052;-63
2022/07/28 03:45:18;;;;;;;1.77;0.80;;;14.10;55.40;;;;;;5054397;28;20045;-63
2022/07/28 03:48:10;;;;;;;1.63;0.82;;;14.10;55.60;;;;;;5054412;28;20041;-67
2022/07/28 03:50:36;;;;;;;2.05;0.90;;;14.10;55.50;;;;;;5051944;28;20095;-63
2022/07/28 03:53:02;;;;;;;4.28;0.95;;;14.00;55.50;;;;;;5053066;28;20107;-68
2022/07/28 03:55:28;;;;;;;2.20;0.95;;;14.10;55.60;;;;;;5054277;28;20041;-68
2022/07/28 03:57:55;;;;;;;1.38;0.70;;;14.00;55.50;;;;;;5052946;28;20045;-63
2022/07/28 04:00:22;;;;;;;1.67;0.95;;;14.00;55.50;;;;;;5052862;28;20124;-64
2022/07/28 04:02:48;;;;;;;2.28;1.05;;;14.00;55.50;;;;;;5052851;28;20044;-67
2022/07/28 04:05:15;;;;;;;1.63;0.75;;;14.10;55.50;;;;;;5054118;28;20044;-68
2022/07/28 04:07:42;;;;;;;1.73;0.60;;;14.00;55.50;;;;;;5053054;28;20055;-68
2022/07/28 04:10:10;;;;;;;1.83;1.08;;;14.10;55.40;;;;;;5052679;28;20091;-63
2022/07/28 04:12:50;;;;;;;1.05;0.95;;;14.00;55.40;;;;;;5036346;28;20045;-63
2022/07/28 04:15:17;;;;;;;1.70;0.77;;;14.00;55.30;;;;;;5054277;28;20123;-63
2022/07/28 04:17:43;;;;;;;2.15;0.60;;;14.10;55.30;;;;;;5052555;28;20044;-63
2022/07/28 04:20:10;;;;;;;1.40;0.75;;;14.00;55.20;;;;;;5052487;28;20045;-67
2022/07/28 04:22:36;;;;;;;2.90;0.80;;;14.10;55.10;;;;;;5052177;28;20063;-63
2022/07/28 04:25:03;;;;;;;2.08;0.93;;;14.00;55.10;;;;;;5052433;28;20075;-69
2022/07/28 04:27:29;;;;;;;2.25;0.60;;;14.00;55.10;;;;;;5052540;28;20047;-67
2022/07/28 04:29:55;;;;;;;1.30;0.70;;;14.10;55.10;;;;;;5052402;28;20102;-68
2022/07/28 04:32:21;;;;;;;2.05;0.90;;;14.10;55.20;;;;;;5051965;28;20462;-67
2022/07/28 04:34:47;;;;;;;1.77;0.80;;;14.00;55.10;;;;;;5053601;28;20111;-68
2022/07/28 04:37:14;;;;;;;1.33;0.70;;;14.00;55.20;;;;;;5052238;28;20045;-68
2022/07/28 04:39:40;;;;;;;1.30;0.80;;;14.00;55.60;;;;;;5053379;28;20078;-68
2022/07/28 04:42:06;;;;;;;0.77;0.50;;;14.00;55.30;;;;;;5052140;28;20123;-67
2022/07/28 04:44:32;;;;;;;1.38;0.93;;;14.00;55.30;;;;;;5052547;28;20037;-68
2022/07/28 04:46:57;;;;;;;2.00;1.00;;;14.00;55.30;;;;;;5035504;28;20052;-63
2022/07/28 04:49:23;;;;;;;4.22;1.15;;;14.00;55.40;;;;;;5053291;28;20040;-63
2022/07/28 04:51:51;;;;;;;1.35;1.00;;;14.00;55.50;;;;;;5051803;28;20043;-63
2022/07/28 04:54:17;;;;;;;1.27;0.80;;;14.00;55.60;;;;;;5052059;28;20049;-67
2022/07/28 04:56:43;;;;;;;2.10;0.70;;;14.00;55.70;;;;;;5051880;28;20045;-63
2022/07/28 04:59:09;;;;;;;1.45;0.80;;;14.00;55.80;;;;;;5053027;28;20050;-63
2022/07/28 05:01:37;;;;;;;1.30;0.90;;;14.00;55.90;;;;;;5051814;28;20036;-63
2022/07/28 05:04:04;;;;;;;1.58;1.17;;;14.00;56.00;;;;;;5052085;28;20049;-63
2022/07/28 05:06:30;;;;;;;1.25;0.80;;;14.00;56.10;;;;;;5051780;28;20045;-67
2022/07/28 05:08:56;;;;;;;1.95;1.00;;;14.00;56.10;;;;;;5051853;28;20394;-63
2022/07/28 05:11:22;;;;;;;2.08;1.27;;;14.00;56.30;;;;;;5053030;28;20068;-67
2022/07/28 05:13:47;;;;;;;4.63;1.38;;;14.00;56.50;;;;;;5052135;28;20044;-67
2022/07/28 05:16:13;;;;;;;3.58;1.60;;;14.10;57.20;;;;;;5051945;28;20481;-63
2022/07/28 05:18:39;;;;;;;5.22;1.92;;;14.10;57.90;;;;;;5051475;28;20444;-68
2022/07/28 05:21:04;;;;;;;2.55;1.27;;;14.30;58.40;;;;;;5034724;28;20405;-62
2022/07/28 05:23:30;;;;;;;4.43;1.95;;;14.60;58.60;;;;;;5068163;28;20053;-68
2022/07/28 05:25:56;;;;;;;4.15;1.80;;;15.00;58.20;;;;;;5051545;28;20120;-63
2022/07/28 05:28:21;;;;;;;3.42;1.80;;;15.30;57.80;;;;;;5052652;28;20049;-63
2022/07/28 05:30:47;;;;;;;5.28;2.03;;;15.70;57.40;;;;;;5052767;28;20041;-63
2022/07/28 05:33:16;;;;;;;2.90;1.50;;;15.90;57.00;;;;;;5052726;28;20041;-64
2022/07/28 05:35:43;;;;;;;4.10;1.65;;;16.00;56.70;;;;;;5052781;28;20448;-69
2022/07/28 05:38:09;;;;;;;3.53;1.77;;;16.10;56.70;;;;;;5068407;28;20048;-68
2022/07/28 05:40:35;;;;;;;2.72;1.58;;;16.30;56.70;;;;;;5051810;28;20049;-68
2022/07/28 05:43:00;;;;;;;3.05;1.70;;;16.50;56.70;;;;;;5069393;28;20514;-63
2022/07/28 05:45:26;;;;;;;6.57;1.95;;;16.70;56.40;;;;;;5072793;28;20051;-67
2022/07/28 05:47:52;;;;;;;3.08;1.40;;;16.80;56.30;;;;;;5055488;28;20041;-63
2022/07/28 05:50:20;;;;;;;4.78;1.92;;;16.90;56.40;;;;;;5072070;28;20040;-63
2022/07/28 05:52:46;;;;;;;3.13;1.83;;;17.00;56.40;;;;;;5055331;28;20440;-68
2022/07/28 05:55:13;;;;;;;5.13;1.75;;;17.20;56.20;;;;;;5055403;28;20048;-63
2022/07/28 05:57:39;;;;;;;4.32;1.80;;;17.30;56.30;;;;;;5055153;28;20051;-63
2022/07/28 06:00:11;;;;;;;3.30;1.70;;;17.60;56.10;;;;;;5056987;28;20048;-68
2022/07/28 06:02:37;;;;;;;3.92;1.80;;;17.80;55.60;;;;;;5055517;28;20667;-69
2022/07/28 06:05:05;;;;;;;5.22;1.63;;;18.10;55.00;;;;;;5056672;28;20052;-63
2022/07/28 06:07:31;;;;;;;2.97;1.42;;;18.20;54.90;;;;;;5055189;28;20545;-63
2022/07/28 06:09:57;;;;;;;4.25;1.77;;;18.60;54.90;;;;;;5055381;28;20124;-63
2022/07/28 06:12:22;;;;;;;5.30;1.35;;;18.80;54.40;;;;;;5055240;28;20555;-67
2022/07/28 06:14:48;;;;;;;2.72;1.20;;;19.00;53.70;;;;;;5055058;28;20045;-68
2022/07/28 06:17:14;;;;;;;4.43;1.50;;;19.20;53.30;;;;;;5056492;28;20040;-68
2022/07/28 06:19:41;;;;;;;3.15;1.30;;;19.30;52.90;;;;;;5056008;28;20037;-68
2022/07/28 06:22:07;;;;;;;4.45;1.30;;;19.40;52.80;;;;;;5055830;28;20052;-63
2022/07/28 06:24:33;;;;;;;4.85;1.33;;;19.50;52.60;;;;;;5054812;28;20048;-69
2022/07/28 06:27:01;;;;;;;4.43;1.50;;;19.50;52.60;;;;;;5054682;28;20059;-68
2022/07/28 06:29:30;;;;;;;5.53;1.67;;;19.50;52.60;;;;;;5054615;28;20053;-69
2022/07/28 06:31:56;;;;;;;3.33;1.20;;;19.50;52.30;;;;;;5055840;28;20044;-68
2022/07/28 06:34:22;;;;;;;3.63;1.33;;;19.50;52.30;;;;;;5054589;28;20040;-69
2022/07/28 06:36:48;;;;;;;3.60;1.48;;;19.50;52.50;;;;;;5055936;28;20062;-64
2022/07/28 06:39:14;;;;;;;3.78;1.60;;;19.50;52.70;;;;;;5054370;28;20456;-63
2022/07/28 06:41:43;;;;;;;4.97;1.65;;;19.40;52.80;;;;;;5038059;28;20048;-64
2022/07/28 06:44:10;;;;;;;5.15;1.60;;;19.40;52.70;;;;;;5054397;28;20045;-63
2022/07/28 06:46:36;;;;;;;2.90;1.20;;;19.50;52.30;;;;;;5055483;28;20073;-68
2022/07/28 06:49:02;;;;;;;4.70;1.20;;;19.40;52.10;;;;;;5054291;28;20060;-69
2022/07/28 06:51:28;;;;;;;4.18;1.55;;;19.40;52.30;;;;;;5054132;28;20128;-68
2022/07/28 06:53:54;;;;;;;3.05;0.93;;;19.40;52.10;;;;;;5053738;28;20187;-68
2022/07/28 06:56:21;;;;;;;2.90;0.85;;;19.30;51.90;;;;;;5054251;28;20037;-69
2022/07/28 06:58:46;;;;;;;5.03;1.40;;;19.30;51.90;;;;;;5055400;28;20037;-68
2022/07/28 07:01:13;;;;;;;5.85;1.60;;;19.20;52.20;;;;;;5054208;28;20041;-68
2022/07/28 07:03:39;;;;;;;4.10;1.25;;;19.20;52.40;;;;;;5055449;28;20041;-68
2022/07/28 07:06:05;;;;;;;5.18;1.50;;;19.20;52.30;;;;;;5038726;28;20107;-68
2022/07/28 07:08:31;;;;;;;4.57;1.20;;;19.10;52.40;;;;;;5035210;28;20049;-64
2022/07/28 07:10:57;;;;;;;3.33;1.10;;;19.00;52.80;;;;;;5035092;28;20517;-64
2022/07/28 07:13:23;;;;;;;4.20;1.20;;;18.90;52.60;;;;;;5034118;28;20049;-64
2022/07/28 07:15:49;;;;;;;2.03;1.05;;;18.80;53.20;;;;;;5035115;28;20099;-64
2022/07/28 07:18:15;;;;;;;3.92;1.17;;;18.70;52.90;;;;;;5035306;28;20441;-63
2022/07/28 07:20:40;;;;;;;5.38;1.50;;;18.60;52.80;;;;;;5033665;28;20041;-68
2022/07/28 07:23:06;;;;;;;4.75;1.20;;;18.50;52.90;;;;;;5017046;28;20046;-67
2022/07/28 07:25:32;;;;;;;4.25;1.58;;;18.50;53.30;;;;;;5035054;28;20386;-67
2022/07/28 07:27:58;;;;;;;3.60;1.10;;;18.40;53.20;;;;;;5017259;28;20048;-68
2022/07/28 07:30:23;;;;;;;5.85;1.48;;;18.40;53.20;;;;;;5033707;28;20124;-68
2022/07/28 07:32:49;;;;;;;4.57;1.30;;;18.30;52.80;;;;;;5033508;28;20041;-67
2022/07/28 07:35:15;;;;;;;6.65;1.73;;;18.20;53.00;;;;;;5033632;28;20046;-68
2022/07/28 07:37:40;;;;;;;3.90;1.17;;;18.20;53.60;;;;;;5033472;28;20049;-68
2022/07/28 07:40:07;;;;;;;3.83;1.40;;;18.30;54.00;;;;;;5033253;28;20041;-69
2022/07/28 07:42:33;;;;;;;3.38;1.42;;;18.60;54.50;;;;;;5033356;28;20146;-69
2022/07/28 07:44:59;;;;;;;3.53;1.25;;;18.90;53.80;;;;;;5033273;28;20076;-69
2022/07/28 07:47:24;;;;;;;4.32;1.25;;;19.10;53.00;;;;;;5033193;28;20056;-68
2022/07/28 07:49:50;;;;;;;6.47;1.67;;;19.30;52.60;;;;;;5033179;28;20049;-69
2022/07/28 07:52:16;;;;;;;3.47;1.10;;;19.60;52.30;;;;;;5033209;28;20046;-68
2022/07/28 07:54:42;;;;;;;6.40;1.15;;;19.90;52.30;;;;;;5033247;28;20533;-69
2022/07/28 07:57:08;;;;;;;4.50;1.15;;;20.10;50.80;;;;;;5033338;28;20069;-69
2022/07/28 07:59:34;;;;;;;5.30;0.90;;;20.30;49.80;;;;;;5033297;28;20053;-69
2022/07/28 08:02:00;;;;;;;3.13;0.80;;;20.40;49.70;;;;;;5033372;28;20055;-69
2022/07/28 08:04:26;;;;;;;3.83;0.73;;;20.50;48.90;;;;;;5034513;28;20046;-69
2022/07/28 08:06:52;;;;;;;2.92;0.60;;;20.60;48.30;;;;;;5048716;28;20037;-69
2022/07/28 08:09:18;;;;;;;4.90;1.08;;;20.60;47.70;;;;;;5032923;28;20038;-69
2022/07/28 08:11:43;;;;;;;1.65;0.60;;;20.60;48.50;;;;;;5049467;28;20045;-69
2022/07/28 08:14:09;;;;;;;2.03;0.70;;;20.70;47.90;;;;;;5016669;28;20099;-70
2022/07/28 08:16:35;;;;;;;4.93;1.00;;;20.80;47.50;;;;;;5034556;28;20045;-69
2022/07/28 08:19:01;;;;;;;2.55;0.60;;;20.90;46.90;;;;;;5033006;28;20185;-64
2022/07/28 08:21:27;;;;;;;2.13;0.68;;;20.90;46.70;;;;;;5032495;28;20510;-69
2022/07/28 08:23:57;;;;;;;4.22;1.00;;;20.90;47.30;;;;;;5032617;28;20107;-68
2022/07/28 08:26:24;;;;;;;2.17;0.77;;;20.90;47.40;;;;;;5034124;28;20379;-70
2022/07/28 08:28:49;;;;;;;3.53;0.90;;;21.00;47.00;;;;;;5032922;28;20037;-69
2022/07/28 08:31:19;;;;;;;3.10;0.80;;;21.00;46.50;;;;;;5032670;28;20033;-64
2022/07/28 08:33:45;;;;;;;2.28;1.08;;;21.00;46.10;;;;;;5033823;28;20064;-63
2022/07/28 08:36:11;;;;;;;3.67;1.02;;;21.00;45.60;;;;;;5016205;28;20127;-63
2022/07/28 08:38:37;;;;;;;3.25;0.90;;;20.90;45.60;;;;;;5032205;28;20522;-63
2022/07/28 08:41:04;;;;;;;7.60;1.20;;;20.90;46.40;;;;;;5032673;28;20563;-64
2022/07/28 08:43:38;;;;;;;5.32;1.05;;;20.90;46.40;;;;;;5032231;28;20046;-63
2022/07/28 08:46:07;;;;;;;;;;;21.00;45.40;;;;;;5033915;28;20456;-63
2022/07/28 08:48:35;;;;;;;4.28;1.30;;;20.90;45.40;;;;;;5033430;28;19924;-63
2022/07/28 08:51:03;;;;;;;5.80;1.00;;;20.90;44.80;;;;;;5032312;28;20044;-64
2022/07/28 08:53:30;;;;;;;5.68;1.65;;;20.80;45.10;;;;;;5048537;28;20045;-63
2022/07/28 08:56:15;;;;;;;3.20;1.10;;;20.70;45.50;;;;;;5032241;28;20434;-64
2022/07/28 08:58:41;;;;;;;2.42;0.90;;;20.60;45.00;;;;;;5032168;28;20041;-64
2022/07/28 09:01:08;;;;;;;3.22;0.80;;;20.40;46.60;;;;;;5031482;28;20052;-63
2022/07/28 09:03:34;;;;;;;3.80;1.05;;;20.30;46.80;;;;;;5031846;28;20446;-63
2022/07/28 09:06:04;;;;;;;2.17;0.73;;;20.20;46.80;;;;;;5014643;28;20112;-63
2022/07/28 09:08:29;;;;;;;2.60;0.82;;;20.20;46.60;;;;;;5032693;28;20052;-63
2022/07/28 09:10:55;;;;;;;3.17;0.60;;;20.20;46.20;;;;;;5032070;28;20037;-63
2022/07/28 09:13:21;;;;;;;6.00;1.60;;;20.20;46.10;;;;;;5031965;28;20490;-63
2022/07/28 09:15:47;;;;;;;3.00;1.25;;;20.20;46.10;;;;;;5033049;28;20045;-63
2022/07/28 09:18:15;;;;;;;2.58;0.70;;;20.20;46.20;;;;;;5031782;28;20055;-63
2022/07/28 09:20:42;;;;;;;6.50;1.27;;;20.20;45.50;;;;;;5031427;28;20120;-63
2022/07/28 09:23:09;;;;;;;4.22;0.77;;;20.10;45.40;;;;;;5032777;28;20062;-64
2022/07/28 09:25:35;;;;;;;4.18;0.75;;;20.20;45.60;;;;;;5031839;28;20071;-63
2022/07/28 09:28:20;;;;;;;2.42;0.70;;;20.20;45.80;;;;;;5031554;28;20483;-64
2022/07/28 09:30:48;;;;;;;3.42;1.02;;;20.20;46.00;;;;;;5032571;28;20065;-63
2022/07/28 09:33:26;;;;;;;2.72;1.15;;;20.30;46.40;;;;;;5031528;28;20084;-63
2022/07/28 09:35:53;;;;;;;6.55;1.30;;;20.30;45.60;;;;;;5031508;28;20057;-63
2022/07/28 09:38:20;;;;;;;9.30;1.92;;;20.30;45.60;;;;;;5031492;28;20045;-63
2022/07/28 09:41:05;;;;;;;7.60;1.40;;;20.30;45.90;;;;;;5031383;28;20495;-63
2022/07/28 09:43:34;;;;;;;;;;;20.20;45.40;;;;;;5031790;28;20482;-64
2022/07/28 09:46:09;;;;;;;1.83;0.50;;;20.10;45.50;;;;;;5031351;28;19917;-63
2022/07/28 09:48:48;;;;;;;2.33;0.75;;;20.10;46.10;;;;;;5031283;28;20198;-62
2022/07/28 09:51:16;;;;;;;3.20;0.80;;;20.10;46.40;;;;;;5047845;28;20052;-62
2022/07/28 09:53:43;;;;;;;2.65;0.80;;;20.10;46.90;;;;;;5031617;28;20059;-68
2022/07/28 09:56:10;;;;;;;3.60;1.00;;;20.10;47.60;;;;;;5031308;28;20486;-67
2022/07/28 09:58:36;;;;;;;3.97;1.20;;;20.20;47.90;;;;;;5031613;28;20067;-67
2022/07/28 10:01:07;;;;;;;3.75;0.70;;;20.30;48.10;;;;;;5031406;28;20084;-67
2022/07/28 10:03:35;;;;;;;3.53;1.00;;;20.50;48.00;;;;;;5032499;28;20029;-67
2022/07/28 10:06:07;;;;;;;2.33;0.77;;;20.60;47.80;;;;;;5032616;28;20116;-67
2022/07/28 10:08:43;;;;;;;4.95;1.30;;;20.80;47.10;;;;;;5015496;28;20057;-67
2022/07/28 10:11:09;;;;;;;2.60;0.95;;;21.10;46.90;;;;;;5031186;28;20057;-67
2022/07/28 10:13:49;;;;;;;2.08;0.77;;;21.20;46.90;;;;;;5032567;28;20394;-66
2022/07/28 10:16:15;;;;;;;2.65;0.75;;;21.30;46.10;;;;;;5032518;28;20044;-66
2022/07/28 10:18:40;;;;;;;3.92;1.00;;;21.40;45.90;;;;;;5031128;28;20045;-68
2022/07/28 10:21:12;;;;;;;4.88;1.20;;;21.50;46.20;;;;;;5032150;28;20064;-68
2022/07/28 10:23:38;;;;;;;3.88;0.88;;;21.50;46.00;;;;;;5032190;28;20133;-66
2022/07/28 10:26:08;;;;;;;5.05;0.85;;;21.60;45.40;;;;;;5047987;28;20037;-67
2022/07/28 10:28:37;;;;;;;2.50;0.98;;;21.70;44.70;;;;;;5032781;28;20311;-68
2022/07/28 10:31:07;;;;;;;3.05;0.95;;;21.70;44.50;;;;;;5036008;28;20042;-66
2022/07/28 10:33:35;;;;;;;2.33;0.55;;;21.70;45.00;;;;;;5035933;28;20081;-67
2022/07/28 10:36:01;;;;;;;1.95;0.80;;;21.80;45.10;;;;;;5034621;28;20049;-62
2022/07/28 10:38:33;;;;;;;2.90;0.88;;;21.80;44.60;;;;;;5034559;28;20049;-61
2022/07/28 10:41:02;;;;;;;2.22;0.70;;;21.80;44.80;;;;;;5034494;28;20055;-62
2022/07/28 10:43:30;;;;;;;4.55;1.17;;;21.80;44.80;;;;;;5034950;28;20102;-62
2022/07/28 10:45:58;;;;;;;5.32;1.55;;;21.70;44.60;;;;;;5034435;28;20186;-62
2022/07/28 10:48:25;;;;;;;5.60;1.17;;;21.70;44.50;;;;;;5034377;28;20103;-62
2022/07/28 10:50:52;;;;;;;2.33;0.80;;;21.70;45.00;;;;;;5034255;28;20053;-62
2022/07/28 10:53:49;;;;;;;2.72;0.90;;;21.70;45.10;;;;;;5034210;28;20106;-62
2022/07/28 10:56:26;;;;;;;2.38;1.00;;;21.80;44.70;;;;;;5035463;28;20041;-63
2022/07/28 10:59:04;;;;;;;3.17;1.10;;;21.90;43.60;;;;;;5035286;28;20049;-62
2022/07/28 11:01:38;;;;;;;3.63;1.02;;;21.90;44.10;;;;;;5034132;28;20041;-62
2022/07/28 11:04:06;;;;;;;4.18;1.20;;;22.00;43.90;;;;;;5034071;28;20069;-62
2022/07/28 11:06:44;;;;;;;4.15;1.13;;;22.00;42.80;;;;;;5035273;28;20092;-61
2022/07/28 11:09:16;;;;;;;2.22;0.98;;;22.00;43.00;;;;;;5033895;28;20098;-63
2022/07/28 11:11:57;;;;;;;4.07;1.10;;;21.90;43.10;;;;;;5033879;28;20076;-63
2022/07/28 11:14:23;;;;;;;2.95;1.20;;;21.80;43.20;;;;;;5033929;28;20034;-62
2022/07/28 11:17:04;;;;;;;3.00;0.95;;;21.80;43.40;;;;;;5033865;28;20057;-62
2022/07/28 11:20:03;;;;;;;4.97;1.33;;;21.80;44.00;;;;;;5035231;28;20399;-62
2022/07/28 11:22:29;;;;;;;2.65;0.88;;;21.80;44.80;;;;;;5034740;28;20107;-62
2022/07/28 11:25:01;;;;;;;4.40;1.30;;;21.80;44.70;;;;;;5033680;28;20449;-62
2022/07/28 11:27:39;;;;;;;1.88;0.95;;;21.80;44.00;;;;;;5033926;28;20147;-63
2022/07/28 11:30:09;;;;;;;1.65;0.88;;;21.90;44.10;;;;;;5033854;28;20216;-62
2022/07/28 11:32:49;;;;;;;3.92;1.05;;;21.90;43.90;;;;;;5034827;28;20573;-61
2022/07/28 11:35:19;;;;;;;2.17;1.23;;;21.90;45.00;;;;;;5033559;28;20509;-62
2022/07/28 11:38:00;;;;;;;2.13;0.90;;;21.90;44.50;;;;;;5033691;28;20059;-63
2022/07/28 11:40:33;;;;;;;2.55;1.05;;;22.00;44.50;;;;;;5033324;28;20057;-62
2022/07/28 11:45:48;;;;;;;4.82;0.90;;;22.10;43.60;;;;;;5033597;28;20053;-62
2022/07/28 11:48:25;;;;;;;2.20;0.70;;;22.10;43.30;;;;;;5034593;28;20552;-66
2022/07/28 11:51:02;;;;;;;2.38;0.80;;;22.20;43.60;;;;;;5033605;28;20045;-68
2022/07/28 11:53:52;;;;;;;2.63;1.02;;;22.30;43.10;;;;;;5033482;28;20049;-67
2022/07/28 11:56:30;;;;;;;3.08;0.80;;;22.40;41.40;;;;;;5033944;28;20095;-67
2022/07/28 11:59:01;;;;;;;4.90;1.08;;;22.40;41.90;;;;;;5033196;28;20037;-68
2022/07/28 12:01:27;;;;;;;4.43;0.90;;;22.40;41.90;;;;;;5033168;28;20048;-67
2022/07/28 12:03:54;;;;;;;2.08;0.95;;;22.40;42.00;;;;;;5034445;28;20033;-67
2022/07/28 12:06:22;;;;;;;2.83;1.20;;;22.50;41.50;;;;;;5033262;28;20101;-67
2022/07/28 12:08:58;;;;;;;3.78;0.95;;;22.50;41.90;;;;;;5034170;28;20088;-68
2022/07/28 12:11:25;;;;;;;3.85;1.17;;;22.60;40.70;;;;;;5034091;28;20497;-67
2022/07/28 12:14:02;;;;;;;3.55;1.00;;;22.60;41.50;;;;;;5034152;28;20048;-67
2022/07/28 12:16:36;;;;;;;2.67;1.20;;;22.60;40.60;;;;;;5033053;28;20064;-67
2022/07/28 12:19:03;;;;;;;2.85;0.88;;;22.50;40.10;;;;;;5032921;28;20394;-67
2022/07/28 12:21:45;;;;;;;3.53;1.00;;;22.50;40.50;;;;;;5016005;28;20042;-67
2022/07/28 12:24:13;;;;;;;4.90;1.00;;;22.50;41.10;;;;;;5032480;28;20195;-67
2022/07/28 12:26:40;;;;;;;2.90;1.15;;;22.40;40.70;;;;;;5032760;28;20041;-67
2022/07/28 12:29:06;;;;;;;3.25;0.95;;;22.40;40.90;;;;;;5032743;28;20048;-68
2022/07/28 12:31:32;;;;;;;4.10;0.93;;;22.40;41.50;;;;;;5033749;28;20037;-67
2022/07/28 12:33:59;;;;;;;2.38;0.90;;;22.40;41.40;;;;;;5032615;28;20120;-68
2022/07/28 12:36:26;;;;;;;2.95;0.75;;;22.40;41.90;;;;;;5032643;28;20041;-67
2022/07/28 12:38:53;;;;;;;1.70;0.68;;;22.40;42.00;;;;;;5033901;28;20038;-68
2022/07/28 12:41:19;;;;;;;1.95;0.77;;;22.30;41.80;;;;;;5032418;28;20084;-68
2022/07/28 12:43:53;;;;;;;3.70;1.00;;;22.40;42.20;;;;;;5032627;28;20053;-68
2022/07/28 12:46:24;;;;;;;1.73;0.80;;;22.40;41.90;;;;;;5032254;28;20075;-68
2022/07/28 12:48:51;;;;;;;1.50;0.80;;;22.40;41.80;;;;;;5033905;28;20042;-68
2022/07/28 12:51:40;;;;;;;2.25;1.10;;;22.40;41.30;;;;;;5031613;28;20088;-67
2022/07/28 12:54:08;;;;;;;2.95;1.10;;;22.40;41.30;;;;;;5032281;28;20045;-67
2022/07/28 12:57:03;;;;;;;2.88;0.85;;;22.40;41.30;;;;;;5033470;28;20044;-67
2022/07/28 12:59:33;;;;;;;2.63;1.17;;;22.50;41.80;;;;;;5032322;28;20111;-67